createdAt,value
2019-04-23T00:01:49.972Z,27.76
2019-04-23T00:04:32.942Z,27.95
2019-04-23T00:07:22.618Z,27.84
2019-04-23T00:09:46.675Z,28.06
2019-04-23T00:12:38.086Z,28.15
2019-04-23T00:15:20.175Z,28.01
2019-04-23T00:17:48.132Z,27.87
2019-04-23T00:20:25.904Z,28.44
2019-04-23T00:23:10.924Z,28.44
2019-04-23T00:26:24.020Z,28.21
2019-04-23T00:28:54.705Z,28.18
2019-04-23T00:31:26.127Z,28.35
2019-04-23T00:34:02.236Z,29.30
2019-04-23T00:39:31.587Z,29.12
2019-04-23T00:41:58.739Z,29.12
2019-04-23T00:44:45.945Z,29.13
2019-04-23T00:47:26.806Z,29.46
2019-04-23T00:52:43.796Z,29.60
2019-04-23T00:55:22.132Z,29.74
2019-04-23T00:58:06.232Z,30.14
2019-04-23T01:03:20.033Z,31.10
2019-04-23T01:05:58.832Z,31.10
2019-04-23T01:08:41.390Z,31.22
2019-04-23T01:13:56.629Z,32.08
2019-04-23T01:16:33.229Z,32.41
2019-04-23T01:19:37.515Z,31.85
2019-04-23T01:21:57.940Z,32.28
2019-04-23T01:25:13.891Z,32.27
2019-04-23T01:28:15.963Z,32.78
2019-04-23T01:31:05.246Z,31.76
2019-04-23T01:33:39.101Z,32.53
2019-04-23T01:36:21.776Z,32.43
2019-04-23T01:38:54.992Z,31.83
2019-04-23T01:41:33.725Z,31.68
2019-04-23T01:44:14.418Z,32.36
2019-04-23T01:46:50.745Z,32.71
2019-04-23T01:49:37.343Z,31.94
2019-04-23T01:52:10.721Z,32.87
2019-04-23T01:54:45.467Z,32.49
2019-04-23T01:57:30.710Z,32.78
2019-04-23T02:00:08.548Z,32.32
2019-04-23T02:02:49.585Z,33.05
2019-04-23T02:05:32.549Z,33.47
2019-04-23T02:13:33.842Z,33.33
2019-04-23T02:16:06.710Z,34.20
2019-04-23T02:18:49.332Z,34.02
2019-04-23T02:21:22.577Z,34.16
2019-04-23T02:24:10.950Z,34.36
2019-04-23T02:27:05.814Z,34.86
2019-04-23T02:29:46.566Z,35.19
2019-04-23T02:34:58.121Z,34.70
2019-04-23T02:37:45.952Z,34.96
2019-04-23T02:40:23.660Z,34.59
2019-04-23T02:43:03.541Z,34.15
2019-04-23T02:45:43.982Z,34.97
2019-04-23T02:53:39.963Z,34.93
2019-04-23T03:01:27.936Z,35.00
2019-04-23T03:04:10.361Z,35.72
2019-04-23T03:09:27.811Z,35.93
2019-04-23T03:12:07.822Z,35.89
2019-04-23T03:14:41.669Z,36.23
2019-04-23T03:17:47.294Z,36.17
2019-04-23T03:23:27.315Z,36.08
2019-04-23T03:26:13.737Z,36.01
2019-04-23T03:32:50.794Z,35.64
2019-04-23T03:34:51.932Z,34.89
2019-04-23T03:39:30.528Z,36.04
2019-04-23T03:42:11.677Z,35.93
2019-04-23T03:44:47.864Z,35.57
2019-04-23T03:47:24.863Z,35.59
2019-04-23T03:50:05.211Z,35.65
2019-04-23T03:55:32.326Z,35.97
2019-04-23T03:58:07.006Z,35.00
2019-04-23T04:03:32.341Z,35.35
2019-04-23T04:08:36.031Z,34.91
2019-04-23T04:11:19.194Z,34.64
2019-04-23T04:16:42.932Z,34.36
2019-04-23T04:19:24.552Z,33.99
2019-04-23T04:30:00.947Z,35.02
2019-04-23T04:32:43.175Z,35.48
2019-04-23T04:43:24.861Z,37.15
2019-04-23T04:46:05.419Z,36.92
2019-04-23T04:48:33.289Z,35.45
2019-04-23T05:01:50.917Z,36.08
2019-04-23T05:04:48.422Z,35.49
2019-04-23T05:15:03.215Z,35.08
2019-04-23T05:20:46.886Z,34.97
2019-04-23T05:23:28.116Z,35.49
2019-04-23T05:26:01.683Z,35.47
2019-04-23T05:28:44.577Z,34.74
2019-04-23T05:31:18.908Z,35.58
2019-04-23T05:34:03.132Z,36.22
2019-04-23T05:36:41.676Z,36.98
2019-04-23T05:39:20.809Z,36.44
2019-04-23T05:41:57.202Z,36.82
2019-04-23T05:44:50.258Z,35.21
2019-04-23T05:47:18.276Z,35.41
2019-04-23T05:49:55.049Z,35.48
2019-04-23T05:52:36.044Z,35.57
2019-04-23T05:55:09.115Z,35.05
2019-04-23T05:57:52.052Z,35.22
2019-04-23T06:00:34.442Z,35.19
2019-04-23T06:03:14.809Z,35.95
2019-04-23T06:05:59.763Z,35.80
2019-04-23T06:08:33.600Z,36.47
2019-04-23T06:11:08.623Z,35.99
2019-04-23T06:13:56.159Z,35.56
2019-04-23T06:24:29.226Z,36.50
2019-04-23T06:27:06.768Z,36.14
2019-04-23T06:29:39.441Z,36.37
2019-04-23T06:32:22.886Z,36.32
2019-04-23T06:35:01.522Z,35.93
2019-04-23T06:38:03.357Z,36.01
2019-04-23T06:40:25.276Z,35.91
2019-04-23T06:43:30.317Z,36.35
2019-04-23T06:46:04.855Z,36.01
2019-04-23T06:49:02.382Z,36.11
2019-04-23T06:51:27.389Z,36.02
2019-04-23T06:54:08.739Z,35.83
2019-04-23T06:56:54.358Z,35.41
2019-04-23T07:02:07.942Z,36.15
2019-04-23T07:04:43.485Z,35.79
2019-04-23T07:07:37.913Z,35.95
2019-04-23T07:10:09.821Z,35.73
2019-04-23T07:12:38.588Z,36.03
2019-04-23T07:15:32.182Z,36.01
2019-04-23T07:17:57.360Z,36.26
2019-04-23T07:20:33.492Z,36.09
2019-04-23T07:23:26.080Z,35.63
2019-04-23T07:25:56.761Z,35.78
2019-04-23T07:28:37.258Z,36.29
2019-04-23T07:31:26.306Z,36.17
2019-04-23T07:33:57.879Z,36.67
2019-04-23T07:39:17.548Z,36.52
2019-04-23T07:45:18.930Z,35.93
2019-04-23T07:50:48.000Z,36.23
2019-04-23T07:56:11.114Z,36.04
2019-04-23T07:58:39.904Z,36.33
2019-04-23T08:01:18.403Z,36.38
2019-04-23T08:04:04.680Z,36.39
2019-04-23T08:06:46.363Z,36.61
2019-04-23T08:09:28.105Z,36.80
2019-04-23T08:12:07.893Z,36.12
2019-04-23T08:14:50.820Z,36.51
2019-04-23T08:17:28.115Z,36.43
2019-04-23T08:20:16.873Z,36.51
2019-04-23T08:22:57.253Z,36.32
2019-04-23T08:26:02.456Z,36.40
2019-04-23T08:28:41.948Z,36.35
2019-04-23T08:31:15.157Z,36.34
2019-04-23T08:33:57.757Z,35.99
2019-04-23T08:36:34.467Z,36.29
2019-04-23T08:39:13.770Z,36.18
2019-04-23T08:42:09.424Z,36.66
2019-04-23T08:47:26.225Z,36.19
2019-04-23T08:50:04.888Z,36.44
2019-04-23T08:52:43.095Z,36.18
2019-04-23T08:58:04.658Z,36.63
2019-04-23T09:01:02.098Z,36.60
2019-04-23T09:06:05.869Z,36.18
2019-04-23T09:08:37.377Z,36.44
2019-04-23T09:11:37.043Z,36.42
2019-04-23T09:13:57.457Z,36.42
2019-04-23T09:16:44.651Z,36.02
2019-04-23T09:19:23.699Z,36.04
2019-04-23T09:22:00.463Z,36.08
2019-04-23T09:24:44.878Z,35.64
2019-04-23T09:27:28.345Z,35.76
2019-04-23T09:30:00.818Z,35.81
2019-04-23T09:32:54.244Z,35.86
2019-04-23T09:35:52.729Z,35.70
2019-04-23T09:38:45.005Z,35.51
2019-04-23T09:44:47.210Z,35.46
2019-04-23T09:47:29.714Z,35.45
2019-04-23T09:50:08.964Z,35.50
2019-04-23T09:55:29.499Z,35.71
2019-04-23T09:58:02.281Z,35.40
2019-04-23T10:00:44.890Z,35.51
2019-04-23T10:03:09.221Z,35.66
2019-04-23T10:05:46.392Z,35.52
2019-04-23T10:08:23.123Z,35.84
2019-04-23T10:10:55.424Z,35.67
2019-04-23T10:13:34.463Z,35.33
2019-04-23T10:16:15.407Z,34.90
2019-04-23T10:18:53.266Z,35.08
2019-04-23T10:21:31.180Z,34.98
2019-04-23T10:24:09.551Z,35.28
2019-04-23T10:26:48.019Z,34.80
2019-04-23T10:29:31.910Z,34.69
2019-04-23T10:32:09.492Z,34.88
2019-04-23T10:34:59.173Z,34.81
2019-04-23T10:37:39.398Z,34.71
2019-04-23T10:40:07.956Z,34.78
2019-04-23T10:42:45.700Z,34.46
2019-04-23T10:46:02.008Z,34.03
2019-04-23T10:49:41.930Z,34.31
2019-04-23T10:54:41.358Z,34.45
2019-04-23T10:59:47.374Z,33.66
2019-04-23T11:05:16.374Z,33.82
2019-04-23T11:07:43.938Z,33.65
2019-04-23T11:10:25.856Z,33.66
2019-04-23T11:13:31.502Z,33.73
2019-04-23T11:16:38.579Z,33.66
2019-04-23T11:21:33.897Z,33.86
2019-04-23T11:24:20.990Z,33.79
2019-04-23T11:26:51.067Z,33.63
2019-04-23T11:29:33.835Z,33.24
2019-04-23T11:32:30.634Z,33.60
2019-04-23T11:35:06.739Z,33.59
2019-04-23T11:37:43.876Z,33.24
2019-04-23T11:40:08.722Z,33.30
2019-04-23T11:42:49.628Z,33.45
2019-04-23T11:45:36.665Z,33.66
2019-04-23T11:48:22.392Z,33.14
2019-04-23T11:51:20.123Z,33.14
2019-04-23T11:56:02.782Z,33.20
2019-04-23T12:01:52.743Z,33.10
2019-04-23T12:04:59.200Z,33.10
2019-04-23T12:07:41.178Z,32.87
2019-04-23T12:13:26.999Z,33.08
2019-04-23T12:16:00.636Z,33.18
2019-04-23T12:18:46.268Z,32.94
2019-04-23T12:21:27.829Z,33.17
2019-04-23T12:24:24.741Z,33.25
2019-04-23T12:26:50.623Z,32.99
2019-04-23T12:29:27.824Z,32.85
2019-04-23T12:32:35.497Z,32.94
2019-04-23T12:37:56.248Z,32.58
2019-04-23T12:45:50.451Z,32.80
2019-04-23T12:48:46.734Z,32.69
2019-04-23T12:51:28.274Z,32.83
2019-04-23T12:53:49.136Z,32.92
2019-04-23T12:56:48.792Z,32.80
2019-04-23T12:59:19.044Z,32.92
2019-04-23T13:01:57.633Z,32.91
2019-04-23T13:04:35.037Z,32.91
2019-04-23T13:07:17.168Z,32.74
2019-04-23T13:09:58.194Z,32.91
2019-04-23T13:15:17.320Z,32.90
2019-04-23T13:17:55.553Z,32.85
2019-04-23T13:20:39.953Z,32.87
2019-04-23T13:23:34.765Z,32.95
2019-04-23T13:28:45.208Z,32.75
2019-04-23T13:31:20.445Z,33.04
2019-04-23T13:34:07.104Z,32.99
2019-04-23T13:36:45.054Z,32.71
2019-04-23T13:39:24.832Z,32.92
2019-04-23T13:42:07.902Z,32.92
2019-04-23T13:44:42.418Z,32.76
2019-04-23T13:47:29.837Z,32.84
2019-04-23T13:50:10.170Z,32.95
2019-04-23T13:55:37.896Z,32.72
2019-04-23T13:58:08.282Z,32.59
2019-04-23T14:01:01.352Z,32.69
2019-04-23T14:03:30.386Z,32.78
2019-04-23T14:06:24.505Z,32.33
2019-04-23T14:14:16.744Z,32.34
2019-04-23T14:17:18.002Z,32.17
2019-04-23T14:19:28.326Z,32.44
2019-04-23T14:22:31.275Z,32.56
2019-04-23T14:27:34.796Z,32.11
2019-04-23T14:30:29.871Z,32.37
2019-04-23T14:33:15.404Z,32.37
2019-04-23T14:40:57.486Z,32.35
2019-04-23T14:49:04.317Z,32.47
2019-04-23T14:54:18.891Z,32.34
2019-04-23T14:57:03.527Z,32.03
2019-04-23T14:59:21.393Z,32.18
2019-04-23T15:02:13.777Z,32.45
2019-04-23T15:04:56.432Z,32.24
2019-04-23T15:07:33.814Z,32.01
2019-04-23T15:10:18.557Z,32.29
2019-04-23T15:12:52.064Z,32.38
2019-04-23T15:15:27.034Z,32.21
2019-04-23T15:18:14.197Z,32.13
2019-04-23T15:21:23.792Z,32.31
2019-04-23T15:28:37.269Z,31.90
2019-04-23T15:31:41.270Z,32.14
2019-04-23T15:42:35.132Z,32.15
2019-04-23T15:45:01.059Z,32.13
2019-04-23T15:47:39.924Z,31.91
2019-04-23T15:50:22.700Z,32.09
2019-04-23T15:55:34.128Z,32.34
2019-04-23T16:03:35.578Z,32.28
2019-04-23T16:06:16.555Z,32.26
2019-04-23T16:09:12.685Z,32.52
2019-04-23T16:11:53.062Z,32.46
2019-04-23T16:14:50.786Z,32.35
2019-04-23T16:17:27.822Z,32.24
2019-04-23T16:22:44.597Z,32.42
2019-04-23T16:25:43.110Z,32.27
2019-04-23T16:28:11.765Z,32.19
2019-04-23T16:31:00.125Z,32.60
2019-04-23T16:33:34.395Z,32.38
2019-04-23T16:36:19.775Z,32.44
2019-04-23T16:38:58.575Z,32.38
2019-04-23T16:41:32.576Z,32.48
2019-04-23T16:44:24.358Z,32.54
2019-04-23T16:46:56.246Z,32.40
2019-04-23T16:49:34.690Z,32.41
2019-04-23T16:52:20.070Z,32.58
2019-04-23T17:00:24.697Z,32.11
2019-04-23T17:03:02.662Z,32.22
2019-04-23T17:08:35.526Z,31.92
2019-04-23T17:13:30.438Z,31.98
2019-04-23T17:16:15.276Z,31.81
2019-04-23T17:18:56.301Z,32.14
2019-04-23T17:21:30.754Z,32.12
2019-04-23T17:27:05.488Z,31.88
2019-04-23T17:29:28.691Z,32.12
2019-04-23T17:32:09.812Z,32.33
2019-04-23T17:35:04.675Z,32.07
2019-04-23T17:37:40.560Z,31.88
2019-04-23T17:40:23.027Z,31.98
2019-04-23T17:43:08.918Z,32.05
2019-04-23T17:45:37.855Z,32.13
2019-04-23T17:48:47.961Z,32.21
2019-04-23T17:51:25.972Z,32.07
2019-04-23T17:54:13.942Z,32.19
2019-04-23T17:57:02.949Z,31.93
2019-04-23T18:00:02.848Z,32.02
2019-04-23T18:02:49.921Z,31.98
2019-04-23T18:08:01.736Z,32.08
2019-04-23T18:10:27.610Z,32.18
2019-04-23T18:13:05.243Z,31.94
2019-04-23T18:15:49.655Z,31.89
2019-04-23T18:18:33.125Z,31.69
2019-04-23T18:21:37.690Z,31.99
2019-04-23T18:24:23.304Z,31.94
2019-04-23T18:29:55.342Z,32.13
2019-04-23T18:33:22.283Z,32.31
2019-04-23T18:38:23.616Z,31.75
2019-04-23T18:43:29.837Z,32.04
2019-04-23T18:51:32.022Z,32.01
2019-04-23T18:54:08.488Z,32.46
2019-04-23T18:57:06.411Z,32.06
2019-04-23T18:59:41.088Z,31.83
2019-04-23T19:02:44.872Z,31.89
2019-04-23T19:05:22.845Z,32.66
2019-04-23T19:11:09.130Z,31.96
2019-04-23T19:13:39.878Z,32.03
2019-04-23T19:16:24.466Z,32.01
2019-04-23T19:24:31.578Z,32.02
2019-04-23T19:27:19.036Z,32.13
2019-04-23T19:29:52.002Z,31.66
2019-04-23T19:32:41.520Z,31.76
2019-04-23T19:35:35.136Z,31.77
2019-04-23T19:40:43.287Z,31.81
2019-04-23T19:43:12.178Z,31.98
2019-04-23T19:46:09.631Z,32.30
2019-04-23T19:51:17.670Z,32.02
2019-04-23T19:56:39.666Z,32.09
2019-04-23T19:59:31.618Z,32.27
2019-04-23T20:01:55.347Z,31.68
2019-04-23T20:04:32.233Z,31.64
2019-04-23T20:12:30.290Z,31.72
2019-04-23T20:15:18.052Z,31.86
2019-04-23T20:17:43.327Z,31.94
2019-04-23T20:20:25.645Z,32.03
2019-04-23T20:23:03.665Z,31.75
2019-04-23T20:26:12.225Z,31.84
2019-04-23T20:32:06.121Z,32.34
2019-04-23T20:32:43.696Z,32.14
2019-04-23T20:34:31.300Z,31.76
2019-04-23T20:37:12.615Z,31.72
2019-04-23T20:39:45.501Z,31.99
2019-04-23T20:42:22.305Z,32.13
2019-04-23T20:44:59.083Z,31.75
2019-04-23T20:50:16.437Z,31.97
2019-04-23T20:52:52.883Z,31.99
2019-04-23T20:55:52.893Z,32.02
2019-04-23T20:58:40.750Z,32.24
2019-04-23T21:01:21.874Z,32.26
2019-04-23T21:04:11.683Z,32.09
2019-04-23T21:06:47.105Z,31.58
2019-04-23T21:09:28.309Z,31.60
2019-04-23T21:15:03.172Z,31.68
2019-04-23T21:17:20.917Z,31.60
2019-04-23T21:22:55.809Z,31.58
2019-04-23T21:25:14.598Z,31.92
2019-04-23T21:28:18.112Z,31.70
2019-04-23T21:31:19.730Z,31.62
2019-04-23T21:36:40.169Z,32.08
2019-04-23T21:39:34.347Z,31.96
2019-04-23T21:42:14.840Z,32.18
2019-04-23T21:44:52.800Z,32.23
2019-04-23T21:50:20.130Z,31.48
2019-04-23T21:52:54.851Z,31.71
2019-04-23T21:55:39.149Z,31.88
2019-04-23T22:03:49.630Z,31.70
2019-04-23T22:06:13.791Z,31.70
2019-04-23T22:08:52.433Z,31.76
2019-04-23T22:11:53.792Z,31.41
2019-04-23T22:14:09.678Z,31.66
2019-04-23T22:19:20.294Z,32.00
2019-04-23T22:22:28.218Z,31.52
2019-04-23T22:24:48.606Z,31.43
2019-04-23T22:27:26.130Z,31.57
2019-04-23T22:30:22.758Z,31.89
2019-04-23T22:33:02.946Z,31.80
2019-04-23T22:35:24.740Z,31.76
2019-04-23T22:40:49.510Z,32.00
2019-04-23T22:43:20.454Z,31.87
2019-04-23T22:46:05.371Z,31.47
2019-04-23T22:49:07.816Z,31.52
2019-04-23T22:51:43.767Z,31.95
2019-04-23T22:54:12.266Z,31.70
2019-04-23T23:02:30.321Z,31.59
2019-04-23T23:05:10.329Z,31.44
2019-04-23T23:10:19.967Z,31.26
2019-04-23T23:13:03.507Z,31.63
2019-04-23T23:15:41.721Z,31.46
2019-04-23T23:18:17.847Z,31.21
2019-04-23T23:23:52.949Z,31.75
2019-04-23T23:26:35.406Z,31.60
2019-04-23T23:28:55.361Z,31.69
2019-04-23T23:31:40.023Z,31.65
2019-04-23T23:34:15.372Z,31.59
2019-04-23T23:37:03.759Z,31.65
2019-04-23T23:40:06.101Z,31.42
2019-04-23T23:45:14.462Z,31.79
2019-04-23T23:47:37.894Z,32.04
2019-04-23T23:50:27.020Z,32.09
2019-04-23T23:53:04.295Z,32.26
2019-04-23T23:55:37.881Z,32.30
2019-04-23T23:58:15.007Z,32.34
